Flight Track Log - Related Links

Times and Time Zones

All times are in EDT time to prevent confusion due to time zone crossing. See the SWA1725 flight status page for this flight to view local times or setup timezone preferences in your user account.

Time Position Orientation Groundspeed Altitude Reporting Facility
EDT Latitude Longitude Course Direction KTS MPH feet Rate Location/Type
Wed 17:04:30 38.7167 -121.6000 38° Northeast 154 177 700  Level Northern Cal TRACON
Wed 17:05:30 38.7500 -121.5667 38° Northeast 223 257 2,400 2,150 Climbing Northern Cal TRACON
Wed 17:06:30 38.7500 -121.4833 90° East 266 306 5,000 2,815 Climbing Northern Cal TRACON
Wed 17:08:12 38.7492 -121.3256 90° East 286 329 10,000 2,598 Climbing Oakland Center
Wed 17:09:14 38.7097 -121.2156 115° Southeast 337 388 12,100 2,341 Climbing Oakland Center
Wed 17:10:15 38.6656 -121.0917 115° Southeast 376 433 14,800 2,557 Climbing Oakland Center
Wed 17:11:16 38.6625 -120.9522 92° East 389 448 17,300 2,361 Climbing Oakland Center
Wed 17:12:17 38.6581 -120.8067 92° East 405 466 19,600 2,361 Climbing Oakland Center
Wed 17:13:18 38.6544 -120.6228 91° East 428 493 22,100 2,195 Climbing Oakland Center
Wed 17:14:20 38.6506 -120.4642 92° East 443 510 24,100 1,854 Climbing Oakland Center
Wed 17:15:21 38.6475 -120.2997 91° East 460 529 25,900 1,672 Climbing Oakland Center
Wed 17:16:22 38.6422 -120.1314 92° East 472 543 27,500 1,574 Climbing Oakland Center
Wed 17:17:23 38.6397 -119.9603 91° East 479 551 29,100 1,623 Climbing Oakland Center
Wed 17:18:24 38.6328 -119.7875 93° East 487 560 30,800 1,707 Climbing Oakland Center
Wed 17:19:26 38.6269 -119.6158 92° East 487 560 32,600 1,561 Climbing Oakland Center
Wed 17:20:27 38.6233 -119.4469 92° East 479 551 34,000 1,180 Climbing Oakland Center
Wed 17:21:28 38.6158 -119.2775 93° East 479 551 35,000 787 Climbing Oakland Center
Wed 17:22:29 38.6078 -119.0742 93° East 481 554 35,600 885 Climbing Oakland Center
Wed 17:23:30 38.6017 -118.9067 93° East 477 549 36,800 500 Climbing Oakland Center
Wed 17:25:17 38.5897 -118.6064 93° East 472 543 37,000 98 Climbing Salt Lake Center
Wed 17:25:33 38.5894 -118.5725 91° East 472 543 37,000  Level Oakland Center
Wed 17:26:34 38.5819 -118.4047 93° East 474 545 37,000  Level Oakland Center
Wed 17:27:35 38.5750 -118.2389 93° East 471 542 37,000  Level Oakland Center
Wed 17:28:36 38.5678 -118.0575 93° East 475 547 37,000  Level Oakland Center
Wed 17:29:37 38.5881 -117.8956 81° East 463 533 37,000  Level Oakland Center
Wed 17:30:38 38.6125 -117.7342 79° East 459 528 37,000  Level Oakland Center
Wed 17:31:27 38.6322 -117.6033 79° East 464 534 37,000  Level Salt Lake Center
Wed 17:32:28 38.6578 -117.4408 79° East 463 533 37,000  Level Salt Lake Center
Wed 17:33:42 38.6867 -117.2469 79° East 460 529 37,000  Level Oakland Center
Wed 17:34:43 38.7119 -117.0839 79° East 463 533 37,000  Level Oakland Center
Wed 17:35:44 38.7367 -116.9225 79° East 461 531 37,000  Level Oakland Center
Wed 17:36:35 38.7547 -116.7925 80° East 459 528 37,000  Level Salt Lake Center
Wed 17:37:37 38.7792 -116.6283 79° East 465 535 37,000  Level Salt Lake Center
Wed 17:38:38 38.8061 -116.4322 80° East 465 535 37,000  Level Salt Lake Center
Wed 17:39:40 38.8294 -116.2725 79° East 457 526 37,000  Level Salt Lake Center
Wed 17:40:42 38.8525 -116.1094 80° East 463 533 37,000  Level Salt Lake Center
Wed 17:41:43 38.8750 -115.9469 80° East 462 532 37,000  Level Salt Lake Center
Wed 17:42:45 38.8964 -115.7867 80° East 457 526 37,000  Level Salt Lake Center
Wed 17:43:47 38.9203 -115.6250 79° East 459 528 37,000  Level Salt Lake Center
Wed 17:44:48 38.9414 -115.4650 80° East 455 524 37,000  Level Salt Lake Center
Wed 17:45:50 38.9675 -115.2806 80° East 459 528 37,000  Level Salt Lake Center
Wed 17:46:52 38.9994 -115.1250 75° East 453 521 37,000  Level Salt Lake Center
Wed 17:47:53 39.0336 -114.9703 74° East 451 519 37,000  Level Salt Lake Center
Wed 17:48:55 39.0653 -114.8181 75° East 444 511 37,000  Level Salt Lake Center
Wed 17:49:57 39.0992 -114.6642 74° East 446 513 37,000  Level Salt Lake Center
Wed 17:50:58 39.1314 -114.5114 75° East 444 511 37,000  Level Salt Lake Center
Wed 17:52:00 39.1642 -114.3578 75° East 444 511 37,000  Level Salt Lake Center
Wed 17:53:02 39.2022 -114.1742 75° East 444 511 37,000  Level Salt Lake Center
Wed 17:54:03 39.2336 -114.0200 75° East 444 511 37,000  Level Salt Lake Center
Wed 17:55:05 39.2650 -113.8653 75° East 447 514 37,000  Level Salt Lake Center
Wed 17:56:06 39.2967 -113.7106 75° East 446 513 37,000  Level Salt Lake Center
Wed 17:57:08 39.3275 -113.5556 76° East 447 514 37,000  Level Salt Lake Center
Wed 17:58:10 39.3583 -113.4008 76° East 445 512 37,000  Level Salt Lake Center
Wed 17:59:11 39.3897 -113.2453 75° East 446 513 37,000  Level Salt Lake Center
Wed 18:00:13 39.4200 -113.0922 76° East 442 509 37,000  Level Salt Lake Center
Wed 18:01:14 39.4558 -112.9069 76° East 442 509 37,000  Level Salt Lake Center
Wed 18:02:16 39.4853 -112.7533 76° East 440 506 37,000  Level Salt Lake Center
Wed 18:03:17 39.5122 -112.6161 76° East 435 501 37,000  Level Salt Lake Center
Wed 18:04:19 39.5411 -112.4658 76° East 432 497 37,000  Level Salt Lake Center
Wed 18:05:20 39.5692 -112.3167 76° East 429 494 37,000  Level Salt Lake Center
Wed 18:06:22 39.6033 -112.1403 76° East 424 488 37,000  Level Salt Lake Center
Wed 18:07:23 39.6306 -111.9900 77° East 429 494 37,000  Level Salt Lake Center
Wed 18:08:25 39.6594 -111.8419 76° East 426 490 37,000  Level Salt Lake Center
Wed 18:09:26 39.6875 -111.6906 76° East 432 497 37,000  Level Salt Lake Center
Wed 18:10:28 39.7142 -111.5394 77° East 433 498 37,000  Level Salt Lake Center
Wed 18:11:29 39.7417 -111.3903 76° East 428 493 37,000  Level Salt Lake Center
Wed 18:12:31 39.7717 -111.2172 77° East 438 504 37,000  Level Salt Lake Center
Wed 18:13:32 39.7981 -111.0706 77° East 438 504 37,000  Level Salt Lake Center
Wed 18:14:34 39.8281 -110.9003 77° East 433 498 37,000  Level Salt Lake Center
Wed 18:15:35 39.8544 -110.7531 77° East 436 502 37,000  Level Salt Lake Center
Wed 18:16:37 39.8836 -110.5794 78° East 438 504 37,000  Level Salt Lake Center
Wed 18:17:38 39.9103 -110.4328 77° East 436 502 37,000  Level Salt Lake Center
Wed 18:18:40 39.9356 -110.2886 77° East 430 495 37,000  Level Salt Lake Center
Wed 18:19:41 39.9628 -110.1192 78° East 428 493 37,000  Level Salt Lake Center
Wed 18:20:43 39.9850 -109.9753 79° East 424 488 37,000  Level Salt Lake Center
Wed 18:21:44 40.0136 -109.8069 77° East 423 487 37,000  Level Salt Lake Center
Wed 18:22:46 40.0364 -109.6631 78° East 424 488 37,000  Level Salt Lake Center
Wed 18:23:48 40.0597 -109.5194 78° East 422 486 37,000  Level Salt Lake Center
Wed 18:24:49 40.0861 -109.3528 78° East 419 482 37,000  Level Salt Lake Center
Wed 18:25:51 40.1092 -109.2081 78° East 418 481 37,000  Level Denver Center
Wed 18:26:53 40.1358 -109.0428 78° East 416 479 37,000  Level Denver Center
Wed 18:27:54 40.1586 -108.8994 78° East 418 481 37,000  Level Denver Center
Wed 18:28:56 40.1800 -108.7564 79° East 418 481 37,000  Level Denver Center
Wed 18:29:57 40.2072 -108.5906 78° East 421 484 37,000  Level Salt Lake Center
Wed 18:30:58 40.2289 -108.4456 79° East 422 486 37,000  Level Salt Lake Center
Wed 18:32:01 40.2542 -108.2756 79° East 422 486 37,000  Level Denver Center
Wed 18:33:03 40.2756 -108.1331 79° East 417 480 37,000  Level Denver Center
Wed 18:34:04 40.2969 -107.9917 79° East 414 476 37,000  Level Denver Center
Wed 18:35:06 40.3206 -107.8289 79° East 408 470 37,000  Level Denver Center
Wed 18:36:08 40.3411 -107.6881 79° East 411 473 37,000  Level Denver Center
Wed 18:37:09 40.3653 -107.5228 79° East 413 475 37,000  Level Denver Center
Wed 18:39:12 40.4072 -107.2183 80° East 410 472 37,000  Level Denver Center
Wed 18:40:14 40.4283 -107.0783 79° East 410 472 37,000  Level Denver Center
Wed 18:41:16 40.4475 -106.9381 80° East 408 470 37,000  Level Denver Center
Wed 18:42:17 40.4697 -106.7761 80° East 411 473 37,000  Level Denver Center
Wed 18:43:19 40.4903 -106.6269 80° East 413 475 37,000  Level Denver Center
Wed 18:44:21 40.5136 -106.4603 80° East 421 484 37,000  Level Denver Center
Wed 18:45:22 40.5336 -106.3128 80° East 426 490 37,000  Level Denver Center
Wed 18:46:24 40.5536 -106.1403 81° East 434 499 37,000  Level Denver Center
Wed 18:47:26 40.5756 -105.9828 80° East 433 498 37,000  Level Denver Center
Wed 18:48:27 40.5958 -105.8253 80° East 432 497 37,000  Level Denver Center
Wed 18:49:29 40.6153 -105.6653 81° East 437 503 37,000  Level Denver Center
Wed 18:50:30 40.6364 -105.5031 80° East 440 506 37,000  Level Denver Center
Wed 18:51:32 40.6567 -105.3436 80° East 436 502 37,000  Level Denver Center
Wed 18:52:33 40.6750 -105.1836 81° East 436 502 37,000  Level Denver Center
Wed 18:53:35 40.6944 -105.0250 81° East 434 499 37,000  Level Denver Center
Wed 18:54:37 40.7144 -104.8664 81° East 434 499 37,000  Level Denver Center
Wed 18:55:38 40.7328 -104.7064 81° East 437 503 37,000  Level Denver Center
Wed 18:56:40 40.7514 -104.5467 81° East 435 501 37,000  Level Denver Center
Wed 18:57:41 40.7711 -104.3833 81° East 443 510 37,000  Level Denver Center
Wed 18:58:43 40.7922 -104.1928 82° East 446 513 37,000  Level Denver Center
Wed 18:59:44 40.8117 -104.0283 81° East 449 517 37,000  Level Denver Center
Wed 19:00:46 40.8289 -103.8617 82° East 453 521 37,000  Level Denver Center
Wed 19:01:48 40.8472 -103.6967 82° East 451 519 37,000  Level Denver Center
Wed 19:02:49 40.8647 -103.5308 82° East 451 519 37,000  Level Denver Center
Wed 19:03:51 40.8828 -103.3656 82° East 451 519 37,000  Level Denver Center
Wed 19:04:52 40.8972 -103.2275 82° East 451 519 37,000  Level Denver Center
Wed 19:05:54 40.9169 -103.0325 82° East 455 524 37,000  Level Denver Center
Wed 19:06:55 40.9367 -102.8508 82° East 460 529 37,000  Level Denver Center
Wed 19:07:57 40.9519 -102.6900 83° East 461 531 37,000  Level Denver Center
Wed 19:08:58 40.9717 -102.4992 82° East 469 540 37,000  Level Denver Center
Wed 19:10:00 40.9872 -102.3358 83° East 468 539 37,000  Level Denver Center
Wed 19:11:01 41.0042 -102.1725 82° East 468 539 37,000  Level Denver Center
Wed 19:12:03 41.0219 -101.9822 83° East 466 536 37,000  Level Denver Center
Wed 19:13:05 41.0375 -101.8194 83° East 465 535 37,000  Level Denver Center
Wed 19:14:06 41.0550 -101.6292 83° East 465 535 37,000  Level Denver Center
Wed 19:15:08 41.0694 -101.4658 83° East 466 536 37,000  Level Denver Center
Wed 19:16:09 41.0822 -101.3033 84° East 463 533 37,000  Level Denver Center
Wed 19:17:11 41.0989 -101.1139 83° East 461 531 37,000  Level Denver Center
Wed 19:18:12 41.1125 -100.9519 84° East 459 528 37,000  Level Denver Center
Wed 19:19:14 41.1289 -100.7628 83° East 459 528 37,000  Level Denver Center
Wed 19:20:16 41.1417 -100.5997 84° East 460 529 37,000  Level Denver Center
Wed 19:21:17 41.1556 -100.4361 84° East 463 533 37,000  Level Denver Center
Wed 19:22:19 41.1706 -100.2442 84° East 465 535 37,000  Level Denver Center
Wed 19:23:20 41.1833 -100.0789 84° East 468 539 37,000  Level Denver Center
Wed 19:24:22 41.1958 -99.9125 84° East 471 542 37,000  Level Denver Center
Wed 19:25:23 41.2081 -99.7464 84° East 472 543 37,000  Level Denver Center
Wed 19:26:26 41.2222 -99.5528 84° East 472 543 37,000  Level Denver Center
Wed 19:27:27 41.2361 -99.3619 84° East 470 541 37,000  Level Denver Center
Wed 19:28:29 41.2483 -99.1875 85° East 472 543 37,000  Level Denver Center
Wed 19:29:31 41.2614 -99.0006 85° East 470 541 37,000  Level Denver Center
Wed 19:30:32 41.2703 -98.8344 86° East 471 542 37,000  Level Denver Center
Wed 19:31:10 41.2792 -98.7231 84° East 470 541 37,000  Level Minneapolis Center
Wed 19:32:12 41.2903 -98.5500 85° East 470 541 37,000  Level Minneapolis Center
Wed 19:33:25 41.3008 -98.3764 85° East 473 544 37,000  Level Minneapolis Center
Wed 19:34:27 41.3131 -98.1683 85° East 471 542 37,000  Level Minneapolis Center
Wed 19:35:29 41.3231 -97.9972 85° East 467 537 37,000  Level Minneapolis Center
Wed 19:36:31 41.3333 -97.8267 85° East 465 535 37,000  Level Minneapolis Center
Wed 19:37:33 41.3453 -97.6244 85° East 462 532 37,000  Level Minneapolis Center
Wed 19:38:34 41.3542 -97.4561 86° East 458 527 37,000  Level Minneapolis Center
Wed 19:39:36 41.3636 -97.2903 86° East 454 522 37,000  Level Minneapolis Center
Wed 19:40:37 41.3722 -97.1261 86° East 448 516 37,000  Level Minneapolis Center
Wed 19:41:39 41.3789 -96.9597 87° East 449 517 37,000  Level Minneapolis Center
Wed 19:42:41 41.3883 -96.7925 86° East 451 519 37,000  Level Minneapolis Center
Wed 19:43:42 41.3958 -96.6258 87° East 452 520 37,000  Level Minneapolis Center
Wed 19:44:44 41.4044 -96.4603 86° East 450 518 37,000  Level Minneapolis Center
Wed 19:45:46 41.4133 -96.2603 87° East 444 511 37,000  Level Minneapolis Center
Wed 19:46:47 41.4197 -96.0986 87° East 440 506 37,000  Level Minneapolis Center
Wed 19:47:49 41.4261 -95.9333 87° East 443 510 37,000  Level Minneapolis Center
Wed 19:48:51 41.4325 -95.7700 87° East 443 510 37,000  Level Minneapolis Center
Wed 19:49:52 41.4381 -95.5933 88° East 448 516 37,000  Level Minneapolis Center
Wed 19:50:54 41.4436 -95.4292 87° East 445 512 37,000  Level Minneapolis Center
Wed 19:51:56 41.4494 -95.2650 87° East 444 511 37,000  Level Minneapolis Center
Wed 19:52:57 41.4561 -95.1053 87° East 437 503 37,000 -390 Level Minneapolis Center
Wed 19:53:59 41.4617 -94.9439 87° East 436 502 36,200 -871 Descending Minneapolis Center
Wed 19:55:01 41.4636 -94.7778 89° East 443 510 35,200 -585 Descending Minneapolis Center
Wed 19:56:02 41.4697 -94.6072 87° East 455 524 35,000 -98 Descending Minneapolis Center
Wed 19:57:04 41.4753 -94.4042 88° East 457 526 35,000  Level Minneapolis Center
Wed 19:58:06 41.4811 -94.2319 87° East 462 532 35,000  Level Minneapolis Center
Wed 19:59:07 41.4828 -94.0894 89° East 460 529 35,000  Level Minneapolis Center
Wed 20:00:09 41.4889 -93.8833 88° East 464 534 35,000  Level Minneapolis Center
Wed 20:01:11 41.4778 -93.7186 95° East 453 521 35,000  Level Minneapolis Center
Wed 20:02:12 41.4669 -93.5525 95° East 451 519 35,000  Level Minneapolis Center
Wed 20:03:14 41.4578 -93.3828 94° East 458 527 35,000  Level Minneapolis Center
Wed 20:04:16 41.4467 -93.2156 95° East 456 525 35,000  Level Minneapolis Center
Wed 20:05:17 41.4367 -93.0442 94° East 461 531 35,000 -267 Level Minneapolis Center
Wed 20:06:31 41.4231 -92.8406 95° East 463 533 34,400 -794 Descending Minneapolis Center
Wed 20:07:33 41.4094 -92.6386 95° East 459 528 33,200 -840 Descending Minneapolis Center
Wed 20:08:11 41.4022 -92.5336 95° East 466 536 33,000 -727 Descending Chicago Center
Wed 20:09:12 41.3894 -92.3483 95° East 467 537 32,000 -927 Descending Chicago Center
Wed 20:10:14 41.3775 -92.1761 95° East 472 543 31,100 -919 Descending Chicago Center
Wed 20:11:16 41.3644 -92.0017 96° East 477 549 30,100 -976 Descending Chicago Center
Wed 20:12:17 41.3519 -91.8314 96° East 469 540 29,100 -537 Descending Chicago Center
Wed 20:13:19 41.3372 -91.6581 96° East 474 545 29,000 -48 Descending Chicago Center
Wed 20:14:21 41.3256 -91.4881 95° East 469 540 29,000  Level Chicago Center
Wed 20:15:23 41.3081 -91.2778 96° East 474 545 29,000  Level Chicago Center
Wed 20:16:24 41.2936 -91.1019 96° East 477 549 29,000 -488 Level Chicago Center
Wed 20:17:26 41.2794 -90.9242 96° East 481 554 28,000 -2,049 Descending Chicago Center
Wed 20:18:27 41.2647 -90.7461 96° East 484 557 24,800 -2,098 Descending Chicago Center
Wed 20:19:29 41.2492 -90.5719 97° East 477 549 23,700 -871 Descending Chicago Center
Wed 20:20:31 41.2342 -90.3981 96° East 473 544 23,000 -341 Descending Chicago Center
Wed 20:21:32 41.2189 -90.2258 97° East 469 540 23,000  Level Chicago Center
Wed 20:22:34 41.2025 -90.0542 97° East 467 537 23,000 -1,403 Level Chicago Center
Wed 20:23:36 41.1883 -89.8806 96° East 469 540 20,100 -3,366 Descending Chicago Center
Wed 20:24:37 41.1678 -89.6792 98° East 455 524 16,100 -3,145 Descending Chicago Center
Wed 20:25:40 41.1636 -89.5244 92° East 425 489 13,600 -1,659 Descending Chicago Center
Wed 20:26:40 41.1742 -89.3850 84° East 384 442 12,700 -1,180 Descending Chicago Center
Wed 20:27:42 41.1822 -89.2567 85° East 355 409 11,200 -1,306 Descending Chicago Center
Wed 20:28:44 41.2008 -89.1225 80° East 350 403 10,000 -581 Descending Chicago Center
Wed 20:29:46 41.2511 -89.0089 59° Northeast 355 409 10,000  Level Chicago Center
Wed 20:30:47 41.2964 -88.8997 61° Northeast 342 394 10,000 -537 Level Chicago Center
Wed 20:31:49 41.3406 -88.7992 60° Northeast 321 369 8,900 -1,306 Descending Chicago Center
Wed 20:32:51 41.3839 -88.7006 60° Northeast 311 358 7,300 -1,366 Descending Chicago Center
Wed 20:33:52 41.4242 -88.6053 61° Northeast 301 346 6,100 -585 Descending Chicago Center
Wed 20:34:54 41.4603 -88.5031 65° Northeast 260 299 6,100 -97 Level Chicago Center
Wed 20:35:56 41.4739 -88.4100 79° East 256 295 5,900 -98 Descending Chicago Center
Wed 20:36:57 41.4856 -88.3289 79° East 233 268 5,900 -195 Level Chicago Center
Wed 20:37:59 41.4969 -88.2525 79° East 215 247 5,500 -581 Descending Chicago Center
Wed 20:39:01 41.5078 -88.1811 79° East 202 232 4,700 -780 Descending Chicago Center
Wed 20:40:02 41.5169 -88.1144 80° East 189 217 3,900 -732 Descending Chicago Center
Wed 20:41:04 41.5411 -88.0586 60° Northeast 182 209 3,200 -677 Descending Chicago Center
Wed 20:42:06 41.5758 -88.0158 43° Northeast 175 201 2,500 -390 Descending Chicago Center
Wed 20:43:07 41.6131 -87.9692 43° Northeast 163 188 2,400 -49 Descending Chicago Center
Wed 20:44:09 41.6433 -87.9311 43° Northeast 156 180 2,400  Level Chicago Center
Wed 20:45:11 41.6744 -87.8919 43° Northeast 153 176 2,400 62 Level Chicago Center
Wed 20:45:46 41.7000 -87.8667 36° Northeast 152 175 2,500 -125 Climbing Chicago TRACON
Wed 20:46:47 41.7167 -87.8333 56° Northeast 139 160 2,200 -496 Descending Chicago TRACON
Wed 20:47:47 41.7500 -87.8000 37° Northeast 117 135 1,500 -650 Descending Chicago TRACON
Wed 20:48:47 41.7667 -87.7667 56° Northeast 124 143 900 -600 Descending Chicago TRACON

Login

Don't have an account? Register now (free) for customized features, flight alerts, and more!